»·PEaware :: N837XY KLAX-KSAN

N837XY :: KLAX-KSAN

FLIGHT INFORMATION

Flight Status: Arrived
Operator: Privately registered:
United States
More flights under this callsign
Pilot: Jeromy R. (28016)
Aircraft: Unknown
(DHT)
More flights by this aircraft type
Origin: KLAX Los Angeles Intl
United States
Destination: KSAN San Diego Intl-Lindbergh
United States
More flights between these airports :: More routes between these airports
Route: SLI8 SLI V64 V363 DANAH V23 MZB
File this flight plan on PilotEdge
Remarks: First Flight
Altitude:
(Current/Filed)
11,000ft
Speed:
(Current/Filed)
150kts
Departed: 13-Feb-20 10:27 PM
Arrived: 13-Feb-20 11:25 PM
Distance/Time
Traveled:
95nm/0:58
Distance/Time
To Go:
Arrived

Flight Plot

Page will automatically refresh every two minutes.

Flight plan parsing failed; only flown route is shown


Map Options




Map Legend


Flown Route
Filed Route
Departure Airport
Arrival Airport
Navaid (VOR, NDB)
Fix

Horizontal Profiles

Position Reports

Time Latitude Longitude Heading Altitude Ground
Speed
13-Feb-20 21:32 33.934136 -118.395321 179 107ft 0kts
13-Feb-20 21:33 33.934136 -118.395321 179 107ft 0kts
13-Feb-20 21:34 33.934136 -118.395321 179 107ft 0kts
13-Feb-20 21:35 33.934136 -118.395321 179 107ft 0kts
13-Feb-20 21:36 33.934136 -118.395321 179 107ft 0kts
13-Feb-20 21:37 33.934136 -118.395321 179 107ft 0kts
13-Feb-20 21:38 33.934136 -118.395321 179 107ft 0kts
13-Feb-20 21:39 33.934136 -118.395321 179 107ft 0kts
13-Feb-20 21:39 33.934136 -118.395321 179 107ft 0kts
13-Feb-20 21:40 33.934136 -118.395321 179 107ft 0kts
13-Feb-20 21:42 33.934136 -118.395321 179 107ft 0kts
13-Feb-20 21:42 33.934136 -118.395321 179 107ft 0kts
13-Feb-20 21:43 33.934136 -118.395321 179 107ft 0kts
13-Feb-20 21:44 33.934136 -118.395321 179 107ft 0kts
13-Feb-20 21:45 33.934136 -118.395321 179 107ft 0kts
13-Feb-20 21:46 33.934136 -118.395321 179 107ft 0kts
13-Feb-20 21:47 33.934136 -118.395321 179 107ft 0kts
13-Feb-20 21:48 33.934136 -118.395321 179 107ft 0kts
13-Feb-20 21:49 33.934136 -118.395321 179 107ft 0kts
13-Feb-20 21:50 33.934136 -118.395321 179 107ft 0kts
13-Feb-20 21:51 33.934136 -118.395321 179 107ft 0kts
13-Feb-20 21:52 33.934136 -118.395321 179 107ft 0kts
13-Feb-20 21:53 33.934136 -118.395321 179 107ft 0kts
13-Feb-20 21:54 33.934136 -118.395321 179 107ft 0kts
13-Feb-20 21:55 33.934136 -118.395321 179 107ft 0kts
13-Feb-20 21:56 33.934136 -118.395321 179 107ft 0kts
13-Feb-20 22:01 33.934136 -118.395321 179 107ft 0kts
13-Feb-20 22:02 33.934136 -118.395321 179 107ft 0kts
13-Feb-20 22:03 33.934136 -118.395321 179 107ft 0kts
13-Feb-20 22:04 33.934136 -118.395321 179 107ft 0kts
13-Feb-20 22:05 33.934136 -118.395321 179 107ft 0kts
13-Feb-20 22:06 33.934136 -118.395321 179 107ft 0kts
13-Feb-20 22:07 33.934136 -118.395321 179 107ft 0kts
13-Feb-20 22:08 33.934136 -118.395321 179 107ft 0kts
13-Feb-20 22:09 33.934136 -118.395321 179 107ft 0kts
13-Feb-20 22:10 33.934136 -118.395321 179 107ft 0kts
13-Feb-20 22:11 33.934136 -118.395321 179 107ft 0kts
13-Feb-20 22:12 33.934136 -118.395321 179 107ft 0kts
13-Feb-20 22:13 33.934136 -118.395321 179 107ft 0kts
13-Feb-20 22:14 33.934136 -118.395321 179 107ft 0kts
13-Feb-20 22:15 33.934136 -118.395321 179 107ft 0kts
13-Feb-20 22:16 33.934136 -118.395321 179 107ft 0kts
13-Feb-20 22:17 33.934136 -118.395321 179 107ft 0kts
13-Feb-20 22:18 33.934136 -118.395321 179 107ft 0kts
13-Feb-20 22:19 33.934136 -118.395321 179 107ft 0kts
13-Feb-20 22:20 33.934195 -118.394826 72 107ft 7kts
13-Feb-20 22:21 33.935259 -118.391270 83 104ft 18kts
13-Feb-20 22:22 33.935932 -118.384661 83 101ft 17kts
13-Feb-20 22:23 33.936444 -118.382815 5 97ft 0kts
13-Feb-20 22:24 33.936444 -118.382815 5 97ft 0kts
13-Feb-20 22:25 33.936444 -118.382815 5 97ft 0kts
13-Feb-20 22:26 33.937122 -118.385161 262 101ft 58kts
13-Feb-20 22:27 33.933939 -118.416135 263 1714ft 97kts
13-Feb-20 22:28 33.924127 -118.444423 221 3419ft 98kts
13-Feb-20 22:29 33.903009 -118.465556 221 4902ft 101kts
13-Feb-20 22:30 33.872089 -118.471216 122 5005ft 159kts
13-Feb-20 22:31 33.860314 -118.418108 106 5015ft 166kts
13-Feb-20 22:32 33.848616 -118.363889 106 5016ft 166kts
13-Feb-20 22:33 33.836638 -118.310073 106 5018ft 166kts
13-Feb-20 22:34 33.810929 -118.266486 140 5018ft 164kts
13-Feb-20 22:35 33.791265 -118.219465 93 5019ft 166kts
13-Feb-20 22:36 33.788722 -118.163432 92 5016ft 167kts
13-Feb-20 22:37 33.786664 -118.107332 92 5016ft 166kts
13-Feb-20 22:38 33.781395 -118.053276 130 5001ft 164kts
13-Feb-20 22:39 33.748853 -118.014700 135 5018ft 164kts
13-Feb-20 22:40 33.716188 -117.976118 134 5018ft 164kts
13-Feb-20 22:41 33.683657 -117.937627 134 5018ft 164kts
13-Feb-20 22:42 33.651029 -117.899072 134 5018ft 164kts
13-Feb-20 22:43 33.618326 -117.860474 134 5018ft 165kts
13-Feb-20 22:44 33.585543 -117.821836 134 5018ft 165kts
13-Feb-20 22:45 33.552674 -117.783149 134 5018ft 165kts
13-Feb-20 22:46 33.522620 -117.747816 134 5019ft 149kts
13-Feb-20 22:47 33.492691 -117.712667 134 5017ft 149kts
13-Feb-20 22:48 33.463031 -117.677873 134 5017ft 148kts
13-Feb-20 22:49 33.433656 -117.643447 134 5017ft 146kts
13-Feb-20 22:50 33.404551 -117.609370 134 5017ft 145kts
13-Feb-20 22:51 33.375667 -117.575584 134 5017ft 145kts
13-Feb-20 22:52 33.346907 -117.541976 134 5017ft 145kts
13-Feb-20 22:53 33.317902 -117.508116 134 5017ft 145kts
13-Feb-20 22:54 33.289005 -117.474419 134 5017ft 144kts
13-Feb-20 22:55 33.260272 -117.440948 134 5017ft 145kts
13-Feb-20 22:56 33.227624 -117.413226 158 5018ft 147kts
13-Feb-20 22:57 33.188760 -117.396740 159 5013ft 149kts
13-Feb-20 22:58 33.149619 -117.380087 159 5011ft 149kts
13-Feb-20 22:59 33.110297 -117.363396 159 5009ft 150kts
13-Feb-20 23:00 33.076398 -117.349000 161 5009ft 152kts
13-Feb-20 23:01 33.036084 -117.332000 161 5009ft 153kts
13-Feb-20 23:02 32.995531 -117.314935 161 5009ft 153kts
13-Feb-20 23:03 32.954660 -117.297767 161 5010ft 156kts
13-Feb-20 23:04 32.912772 -117.280195 161 5010ft 161kts
13-Feb-20 23:05 32.871738 -117.263003 161 5010ft 161kts
13-Feb-20 23:06 32.829348 -117.245266 161 5011ft 160kts
13-Feb-20 23:07 32.787446 -117.227754 162 5009ft 155kts
13-Feb-20 23:08 32.764701 -117.188798 105 5014ft 150kts
13-Feb-20 23:09 32.752726 -117.140347 105 5018ft 154kts
13-Feb-20 23:10 32.740568 -117.091177 105 5017ft 155kts
13-Feb-20 23:11 32.728364 -117.041861 105 5015ft 154kts
13-Feb-20 23:12 32.716682 -116.994674 105 5008ft 138kts
13-Feb-20 23:13 32.706130 -116.952088 105 5011ft 131kts
13-Feb-20 23:14 32.695875 -116.910735 105 5005ft 125kts
13-Feb-20 23:15 32.678493 -116.884789 197 4422ft 110kts
13-Feb-20 23:16 32.666438 -116.916607 255 4020ft 123kts
13-Feb-20 23:17 32.673550 -116.957256 288 4012ft 131kts
13-Feb-20 23:18 32.683409 -116.995010 288 3444ft 109kts
13-Feb-20 23:19 32.692454 -117.030086 288 2781ft 110kts
13-Feb-20 23:20 32.701923 -117.066281 288 2288ft 124kts
13-Feb-20 23:21 32.712179 -117.105948 288 1552ft 125kts
13-Feb-20 23:22 32.721760 -117.143427 289 797ft 94kts
13-Feb-20 23:23 32.729256 -117.172977 289 220ft 80kts
13-Feb-20 23:24 32.734143 -117.187166 105 19ft 20kts
13-Feb-20 23:25 32.732701 -117.181265 101 18ft 17kts
13-Feb-20 23:26 32.732942 -117.179215 222 22ft 0kts
13-Feb-20 23:27 32.732942 -117.179215 222 22ft 0kts
13-Feb-20 23:28 32.732942 -117.179215 222 22ft 0kts

Navigation Log

Ident Type
Flight plan parsing failed, navigation log unavailable